Allandale, FL

4:38 PM EDT on October 23, 2014 (GMT -0400)
Muffs Colonial Colony South Home | Change Station
CLOSE
Current Station
Personal Weather Station
Location: Daytona Beach, FL
Elevation: 36 ft
Nearby Weather Stations

Elev 36 ft 29.17 °N, 81.03 °W | Updated 3 seconds ago

Partly Cloudy
Partly Cloudy
75.0 °F
Feels Like 78 °F
N
0.0
Wind Variable Wind from North
Gusts 0.0 mph

Today
High -- | Low -- °F
--% Chance of Precip.
Yesterday
High -- | Low -- °F
Precip. -- in
7:30 AM 6:45 PM
Waning Crescent, 0% visible
Pressure 29.97 in
Visibility 10.0 miles
Clouds Few 4500 ft
Heat Index 78 °F
Dew Point 57 °F
Humidity 54%
Rainfall 0.00 in
Snow Depth Not available.
UV 4 out of 12
Pollen 5.80 out of 12
Air Quality Not available.
Flu Activity Local Activity
METAR KDAB 231953Z 04007KT 10SM FEW045 24/13 A2997 RMK AO2 SLP148 T02440133

More Conditions Fewer Conditions

Pressure 29.97 in
Visibility 10.0 miles
Clouds Few 4500 ft
Heat Index 78 °F
Dew Point 57 °F
Humidity 54%
Rainfall 0.00 in
Snow Depth Not available.
UV 4 out of 12
Pollen 5.80 out of 12
Air Quality Not available.
Flu Activity Local Activity
METAR KDAB 231953Z 04007KT 10SM FEW045 24/13 A2997 RMK AO2 SLP148 T02440133

More Conditions Fewer Conditions

10-Day Weather Forecast

Almanac

Astronomy

Oct. 23, 2014 Rise Set
Actual Time 7:30 AM EDT 6:45 PM EDT
Civil Twilight 7:06 AM EDT 7:10 PM EDT
Nautical Twilight 6:38 AM EDT 7:37 PM EDT
Astronomical Twilight 6:10 AM EDT 8:05 PM EDT
Moon 7:10 AM EDT 6:46 PM EDT
Length of Visible Light 12h 03m
Length of Day
11h 15m
Tomorrow will be 1m 36s shorter.
Waning Crescent, 0% of the Moon is Illuminated
Today
Waning Crescent
Oct 23
New
Oct 30
First Quarter
Nov 6
Full
Nov 14
Last Quarter

Today's Extremes

State Highs State Lows

Community

WunderPhotos

Upload Photos

1,764,361 photos uploaded!

WunderBlogs® & News

By Dr. Jeff Masters
Director of Meteorology, Weather Underground
By Kari Strenfel
Meteorologist, Weather Underground
By Christopher C. Burt
Weather Historian, Weather Underground
October 23, 2014
October 23, 2014
October 23, 2014

Nearby

Snow Depth

Station Depth Elevation
No new snow has been reported.

Earthquake Activity

City Distance Mag. Time & Date
No recent earthquake activity has been reported nearby.
Minimum magnitude displayed is 2.5.

Coastal Water Temperatures

Place Temperature
Trident Pier, FL 80.1 °F
Mayport (Bar Pilots Dock), FL 75.9 °F
Fernandina Beach, FL 73.0 °F
McKay Bay Entrance, FL 80.1 °F

Nearby Weather Stations